createdAt,value
2023-05-10T00:00:49.333Z,11.0225
2023-05-10T00:01:57.432Z,11.0759
2023-05-10T00:03:05.643Z,11.1150
2023-05-10T00:04:13.621Z,11.1308
2023-05-10T00:05:21.501Z,11.0831
2023-05-10T00:06:29.470Z,11.0934
2023-05-10T00:07:37.523Z,11.1222
2023-05-10T00:08:45.712Z,11.1050
2023-05-10T00:09:53.856Z,11.0743
2023-05-10T00:11:01.860Z,11.1745
2023-05-10T00:12:09.922Z,11.2147
2023-05-10T00:13:18.048Z,11.1075
2023-05-10T00:14:26.085Z,11.1974
2023-05-10T00:15:34.048Z,11.2220
2023-05-10T00:16:42.149Z,11.1739
2023-05-10T00:17:50.178Z,11.1850
2023-05-10T00:18:58.237Z,11.2393
2023-05-10T00:20:06.198Z,11.2832
2023-05-10T00:21:14.196Z,11.3082
2023-05-10T00:22:22.253Z,11.3107
2023-05-10T00:23:30.468Z,11.2899
2023-05-10T00:24:38.474Z,11.3459
2023-05-10T00:25:46.794Z,11.3896
2023-05-10T00:26:54.944Z,11.5012
2023-05-10T00:28:02.663Z,11.4920
2023-05-10T00:29:10.702Z,11.3864
2023-05-10T00:30:19.041Z,11.4045
2023-05-10T00:31:26.863Z,11.3889
2023-05-10T00:32:34.918Z,11.3360
2023-05-10T00:33:42.922Z,11.3766
2023-05-10T00:34:50.875Z,11.5660
2023-05-10T00:35:58.896Z,11.7678
2023-05-10T00:37:06.996Z,11.8375
2023-05-10T00:38:15.227Z,11.6671
2023-05-10T00:39:23.292Z,11.7011
2023-05-10T00:40:31.341Z,11.8052
2023-05-10T00:41:39.436Z,11.8123
2023-05-10T00:42:47.589Z,11.6807
2023-05-10T00:43:55.486Z,11.5462
2023-05-10T00:45:03.529Z,11.7368
2023-05-10T00:46:11.751Z,11.7522
2023-05-10T00:47:19.644Z,11.8624
2023-05-10T00:48:27.783Z,11.9077
2023-05-10T00:49:35.620Z,11.8521
2023-05-10T00:50:43.690Z,11.7514
2023-05-10T00:51:51.721Z,11.6286
2023-05-10T00:52:59.976Z,11.6254
2023-05-10T00:54:08.023Z,11.5716
2023-05-10T00:55:16.035Z,11.5680
2023-05-10T00:56:24.086Z,11.5365
2023-05-10T00:57:32.166Z,11.5783
2023-05-10T00:58:40.319Z,11.3528
2023-05-10T00:59:48.299Z,11.3892
2023-05-10T01:00:56.426Z,11.5157
2023-05-10T01:02:04.479Z,11.4760
2023-05-10T01:03:12.582Z,11.5683
2023-05-10T01:04:20.396Z,11.4594
2023-05-10T01:05:28.478Z,11.5536
2023-05-10T01:06:36.476Z,11.6622
2023-05-10T01:07:44.708Z,11.6143
2023-05-10T01:08:52.724Z,11.6023
2023-05-10T01:10:00.800Z,11.4833
2023-05-10T01:11:08.861Z,11.5311
2023-05-10T01:12:16.979Z,11.6549
2023-05-10T01:13:25.008Z,11.6874
2023-05-10T01:14:33.144Z,11.6607
2023-05-10T01:15:41.147Z,11.6723
2023-05-10T01:16:49.106Z,11.5941
2023-05-10T01:17:57.209Z,11.6160
2023-05-10T01:19:05.089Z,11.6628
2023-05-10T01:20:13.190Z,11.5905
2023-05-10T01:21:21.259Z,11.5428
2023-05-10T01:22:29.407Z,11.5800
2023-05-10T01:23:37.456Z,11.5496
2023-05-10T01:24:45.502Z,11.4802
2023-05-10T01:25:53.573Z,11.4837
2023-05-10T01:27:01.654Z,11.4117
2023-05-10T01:28:09.672Z,11.4068
2023-05-10T01:29:17.758Z,11.2910
2023-05-10T01:30:25.909Z,11.4697
2023-05-10T01:31:33.959Z,11.4589
2023-05-10T01:32:42.136Z,11.4432
2023-05-10T01:33:49.834Z,11.4308
2023-05-10T01:34:57.887Z,11.5413
2023-05-10T01:36:05.940Z,11.4787
2023-05-10T01:37:14.134Z,11.4669
2023-05-10T01:38:22.207Z,11.4903
2023-05-10T01:39:30.236Z,11.4678
2023-05-10T01:40:38.289Z,11.3978
2023-05-10T01:41:46.384Z,11.2981
2023-05-10T01:42:54.402Z,11.3570
2023-05-10T01:44:02.435Z,11.3955
2023-05-10T01:45:10.496Z,11.4255
2023-05-10T01:46:18.673Z,11.4249
2023-05-10T01:47:26.707Z,11.4249
2023-05-10T01:48:34.540Z,11.5451
2023-05-10T01:49:42.574Z,11.4781
2023-05-10T01:50:50.665Z,11.4728
2023-05-10T01:51:58.901Z,11.5008
2023-05-10T01:53:06.942Z,11.4697
2023-05-10T01:54:14.983Z,11.5889
2023-05-10T01:55:23.039Z,11.6252
2023-05-10T01:56:31.193Z,11.4224
2023-05-10T01:57:39.176Z,11.4631
2023-05-10T01:58:47.292Z,11.5378
2023-05-10T01:59:55.258Z,11.6050
2023-05-10T02:01:03.398Z,11.4732
2023-05-10T02:02:11.379Z,11.5231
2023-05-10T02:03:19.303Z,11.5367
2023-05-10T02:04:27.317Z,11.3625
2023-05-10T02:05:35.390Z,11.3353
2023-05-10T02:06:43.658Z,11.3387
2023-05-10T02:07:51.601Z,11.3389
2023-05-10T02:08:59.727Z,11.3631
2023-05-10T02:10:07.731Z,11.3536
2023-05-10T02:11:15.802Z,11.4028
2023-05-10T02:12:23.992Z,11.3747
2023-05-10T02:13:31.983Z,11.1203
2023-05-10T02:14:39.934Z,11.2365
2023-05-10T02:15:48.000Z,11.2576
2023-05-10T02:16:56.186Z,11.4074
2023-05-10T02:18:04.256Z,11.6275
2023-05-10T02:19:12.043Z,11.3972
2023-05-10T02:20:20.327Z,11.3585
2023-05-10T02:21:28.160Z,11.5187
2023-05-10T02:22:36.364Z,11.6385
2023-05-10T02:23:44.475Z,11.7726
2023-05-10T02:24:52.464Z,11.6967
2023-05-10T02:26:00.737Z,11.5722
2023-05-10T02:27:08.559Z,11.5796
2023-05-10T02:28:16.715Z,11.5615
2023-05-10T02:29:24.724Z,11.6748
2023-05-10T02:30:32.873Z,11.6662
2023-05-10T02:31:41.331Z,11.7064
2023-05-10T02:32:48.795Z,11.7690
2023-05-10T02:33:56.795Z,11.7423
2023-05-10T02:35:04.880Z,11.6849
2023-05-10T02:36:13.052Z,11.7719
2023-05-10T02:37:21.211Z,11.7358
2023-05-10T02:38:29.258Z,11.5216
2023-05-10T02:39:37.261Z,11.5134
2023-05-10T02:40:45.269Z,11.4299
2023-05-10T02:41:53.398Z,11.3065
2023-05-10T02:43:01.416Z,11.3574
2023-05-10T02:44:09.692Z,11.4737
2023-05-10T02:45:17.609Z,11.5821
2023-05-10T02:46:25.790Z,11.7287
2023-05-10T02:47:33.624Z,11.7669
2023-05-10T02:48:41.535Z,11.7144
2023-05-10T02:49:49.583Z,11.6662
2023-05-10T02:50:57.886Z,11.6385
2023-05-10T02:52:10.735Z,11.7239
2023-05-10T02:53:19.019Z,11.6788
2023-05-10T02:54:26.833Z,11.7528
2023-05-10T02:55:34.921Z,11.7289
2023-05-10T02:56:42.984Z,11.7837
2023-05-10T02:57:50.981Z,11.8287
2023-05-10T02:58:59.102Z,11.8481
2023-05-10T03:00:07.109Z,11.6896
2023-05-10T03:01:15.053Z,11.6137
2023-05-10T03:02:23.146Z,11.6948
2023-05-10T03:03:31.120Z,11.6133
2023-05-10T03:04:39.433Z,11.5548
2023-05-10T03:05:47.353Z,11.5327
2023-05-10T03:06:55.441Z,11.4760
2023-05-10T03:08:03.599Z,11.4354
2023-05-10T03:09:11.679Z,11.5655
2023-05-10T03:10:19.726Z,11.4743
2023-05-10T03:11:27.673Z,11.5580
2023-05-10T03:12:35.695Z,11.6156
2023-05-10T03:13:43.825Z,11.6902
2023-05-10T03:14:51.990Z,11.7392
2023-05-10T03:15:59.782Z,11.7158
2023-05-10T03:17:07.803Z,11.7810
2023-05-10T03:18:15.925Z,11.7259
2023-05-10T03:19:24.185Z,11.5681
2023-05-10T03:20:32.182Z,11.6704
2023-05-10T03:21:40.262Z,11.7783
2023-05-10T03:22:48.109Z,11.8750
2023-05-10T03:23:56.345Z,11.9632
2023-05-10T03:25:04.524Z,11.8981
2023-05-10T03:26:12.393Z,11.8316
2023-05-10T03:27:20.472Z,11.8718
2023-05-10T03:28:28.654Z,11.7585
2023-05-10T03:29:36.620Z,11.4566
2023-05-10T03:30:44.506Z,11.4388
2023-05-10T03:31:52.684Z,11.5334
2023-05-10T03:33:00.785Z,11.4213
2023-05-10T03:34:08.861Z,11.4268
2023-05-10T03:35:16.987Z,11.5039
2023-05-10T03:36:24.945Z,11.5533
2023-05-10T03:37:32.971Z,11.6477
2023-05-10T03:38:41.078Z,11.5731
2023-05-10T03:39:49.210Z,11.3129
2023-05-10T03:40:57.468Z,11.4112
2023-05-10T03:42:05.290Z,11.4903
2023-05-10T03:43:13.323Z,11.5453
2023-05-10T03:44:21.412Z,11.6433
2023-05-10T03:45:29.254Z,11.7396
2023-05-10T03:46:37.388Z,11.7522
2023-05-10T03:47:45.505Z,11.6544
2023-05-10T03:48:53.578Z,11.5954
2023-05-10T03:50:01.678Z,11.6692
2023-05-10T03:51:09.835Z,11.6479
2023-05-10T03:52:17.921Z,11.6900
2023-05-10T03:53:26.161Z,11.8218
2023-05-10T03:54:34.000Z,11.9080
2023-05-10T03:55:41.978Z,11.9267
2023-05-10T03:56:50.033Z,11.8048
2023-05-10T03:57:58.128Z,11.6351
2023-05-10T03:59:06.041Z,11.6376
2023-05-10T04:00:14.046Z,11.6767
2023-05-10T04:01:22.021Z,11.7417
2023-05-10T04:02:30.213Z,11.8928
2023-05-10T04:03:38.383Z,11.9109
2023-05-10T04:04:46.383Z,11.9553
2023-05-10T04:05:54.367Z,11.8939
2023-05-10T04:07:02.436Z,11.8077
2023-05-10T04:08:10.449Z,11.7636
2023-05-10T04:09:18.567Z,11.8117
2023-05-10T04:10:26.672Z,11.6998
2023-05-10T04:11:34.799Z,11.7171
2023-05-10T04:12:42.836Z,11.7669
2023-05-10T04:13:50.766Z,11.7314
2023-05-10T04:14:58.703Z,11.7930
2023-05-10T04:16:06.843Z,11.7932
2023-05-10T04:17:14.905Z,11.8398
2023-05-10T04:18:23.025Z,11.8363
2023-05-10T04:19:31.105Z,11.6710
2023-05-10T04:20:39.140Z,11.6515
2023-05-10T04:21:47.181Z,11.6734
2023-05-10T04:22:55.237Z,11.8102
2023-05-10T04:24:03.155Z,11.7074
2023-05-10T04:25:11.521Z,11.7165
2023-05-10T04:26:19.411Z,11.6229
2023-05-10T04:27:27.517Z,11.7081
2023-05-10T04:28:35.532Z,11.7966
2023-05-10T04:29:43.511Z,11.7436
2023-05-10T04:30:51.545Z,11.7789
2023-05-10T04:31:59.567Z,11.7434
2023-05-10T04:33:07.889Z,11.8058
2023-05-10T04:34:15.806Z,11.6984
2023-05-10T04:35:23.873Z,11.7951
2023-05-10T04:36:31.933Z,11.7669
2023-05-10T04:37:39.949Z,11.6210
2023-05-10T04:38:48.077Z,11.6936
2023-05-10T04:39:56.114Z,11.6864
2023-05-10T04:41:04.164Z,11.5826
2023-05-10T04:42:12.454Z,11.4596
2023-05-10T04:43:20.247Z,11.4596
2023-05-10T04:44:28.181Z,11.5235
2023-05-10T04:45:36.225Z,11.5908
2023-05-10T04:46:44.361Z,11.6345
2023-05-10T04:47:52.713Z,11.5773
2023-05-10T04:49:00.562Z,11.4882
2023-05-10T04:50:08.697Z,11.5331
2023-05-10T04:51:16.765Z,11.5830
2023-05-10T04:52:24.763Z,11.5903
2023-05-10T04:53:32.886Z,11.5947
2023-05-10T04:54:41.051Z,11.6816
2023-05-10T04:55:49.090Z,11.7669
2023-05-10T04:56:57.058Z,11.7595
2023-05-10T04:58:05.051Z,11.8565
2023-05-10T04:59:13.019Z,11.8398
2023-05-10T05:00:21.046Z,11.6698
2023-05-10T05:01:29.263Z,11.6856
2023-05-10T05:02:37.397Z,11.6624
2023-05-10T05:03:45.679Z,11.8218
2023-05-10T05:04:53.406Z,11.8823
2023-05-10T05:06:01.578Z,11.8609
2023-05-10T05:07:09.536Z,11.9828
2023-05-10T05:08:17.672Z,12.0356
2023-05-10T05:09:25.650Z,11.9496
2023-05-10T05:10:33.825Z,11.9550
2023-05-10T05:11:41.815Z,11.9704
2023-05-10T05:12:49.841Z,11.7921
2023-05-10T05:13:57.755Z,11.8550
2023-05-10T05:15:07.849Z,11.8295
2023-05-10T05:16:18.852Z,11.7630
2023-05-10T05:17:26.988Z,11.8802
2023-05-10T05:18:34.971Z,12.0143
2023-05-10T05:19:42.983Z,12.0940
2023-05-10T05:20:51.061Z,11.9921
2023-05-10T05:21:59.105Z,11.9439
2023-05-10T05:23:07.239Z,11.8623
2023-05-10T05:24:15.238Z,11.8277
2023-05-10T05:25:23.169Z,11.6662
2023-05-10T05:26:31.469Z,11.6038
2023-05-10T05:27:39.339Z,11.6538
2023-05-10T05:28:47.362Z,11.7379
2023-05-10T05:29:55.380Z,11.7186
2023-05-10T05:31:03.540Z,11.6977
2023-05-10T05:32:11.610Z,11.5382
2023-05-10T05:33:19.768Z,11.5239
2023-05-10T05:34:27.747Z,11.3198
2023-05-10T05:35:35.814Z,11.4299
2023-05-10T05:36:43.831Z,11.4121
2023-05-10T05:37:52.088Z,11.6694
2023-05-10T05:39:00.041Z,11.6957
2023-05-10T05:40:07.998Z,11.6948
2023-05-10T05:41:16.100Z,11.6824
2023-05-10T05:42:24.014Z,11.5397
2023-05-10T05:43:32.016Z,11.4947
2023-05-10T05:44:40.127Z,11.5331
2023-05-10T05:45:48.309Z,11.7024
2023-05-10T05:46:56.631Z,11.6675
2023-05-10T05:48:04.499Z,11.5708
2023-05-10T05:49:12.449Z,11.5218
2023-05-10T05:50:20.556Z,11.3517
2023-05-10T05:51:28.595Z,11.3740
2023-05-10T05:52:36.643Z,11.1159
2023-05-10T05:53:44.740Z,11.2967
2023-05-10T05:54:52.754Z,11.2971
2023-05-10T05:56:00.854Z,11.3156
2023-05-10T05:57:08.739Z,11.4175
2023-05-10T05:58:16.825Z,11.4249
2023-05-10T05:59:24.904Z,11.5151
2023-05-10T06:00:33.149Z,11.4962
2023-05-10T06:01:41.168Z,11.3337
2023-05-10T06:02:49.326Z,11.3866
2023-05-10T06:03:57.323Z,11.2910
2023-05-10T06:05:05.339Z,11.3692
2023-05-10T06:06:13.385Z,11.6523
2023-05-10T06:07:21.422Z,11.7493
2023-05-10T06:08:29.600Z,11.6341
2023-05-10T06:09:37.524Z,11.6439
2023-05-10T06:10:45.589Z,11.7425
2023-05-10T06:11:53.530Z,11.8415
2023-05-10T06:13:01.594Z,11.8987
2023-05-10T06:14:09.683Z,11.9359
2023-05-10T06:15:18.066Z,12.0505
2023-05-10T06:16:26.050Z,12.1608
2023-05-10T06:17:34.006Z,12.0890
2023-05-10T06:18:42.002Z,11.9870
2023-05-10T06:19:50.128Z,12.0156
2023-05-10T06:20:58.204Z,12.0494
2023-05-10T06:22:06.224Z,11.9778
2023-05-10T06:23:14.459Z,11.9708
2023-05-10T06:24:22.348Z,12.0215
2023-05-10T06:25:30.358Z,11.9443
2023-05-10T06:26:38.297Z,11.8071
2023-05-10T06:27:49.766Z,11.9437
2023-05-10T06:28:59.456Z,11.9588
2023-05-10T06:30:13.071Z,11.8199
2023-05-10T06:31:20.387Z,11.9234
2023-05-10T06:32:28.518Z,11.9773
2023-05-10T06:33:36.532Z,11.9134
2023-05-10T06:34:44.687Z,11.6614
2023-05-10T06:35:52.662Z,11.5580
2023-05-10T06:37:00.852Z,11.4833
2023-05-10T06:38:08.769Z,11.4026
2023-05-10T06:39:16.699Z,11.4575
2023-05-10T06:40:24.933Z,11.3547
2023-05-10T06:41:32.785Z,11.3694
2023-05-10T06:42:41.184Z,11.5836
2023-05-10T06:43:49.084Z,11.6202
2023-05-10T06:44:57.323Z,11.5048
2023-05-10T06:46:05.242Z,11.3543
2023-05-10T06:47:13.218Z,11.3486
2023-05-10T06:48:21.308Z,11.2284
2023-05-10T06:49:29.365Z,11.2195
2023-05-10T06:50:37.407Z,11.2382
2023-05-10T06:51:45.455Z,11.1396
2023-05-10T06:52:53.530Z,11.2218
2023-05-10T06:54:01.460Z,11.1972
2023-05-10T06:55:09.513Z,11.2094
2023-05-10T06:56:17.602Z,11.1646
2023-05-10T06:57:31.794Z,11.3280
2023-05-10T06:58:38.692Z,11.3961
2023-05-10T06:59:46.752Z,11.3934
2023-05-10T07:00:54.831Z,11.4999
2023-05-10T07:02:02.899Z,11.4503
2023-05-10T07:03:11.038Z,11.4184
2023-05-10T07:04:19.223Z,11.5161
2023-05-10T07:05:27.053Z,11.4579
2023-05-10T07:06:35.169Z,11.5279
2023-05-10T07:07:43.072Z,11.6086
2023-05-10T07:08:51.091Z,11.7696
2023-05-10T07:09:59.128Z,11.6019
2023-05-10T07:11:07.327Z,11.5598
2023-05-10T07:12:16.046Z,11.6811
2023-05-10T07:13:23.651Z,11.7799
2023-05-10T07:14:31.511Z,11.7179
2023-05-10T07:15:39.580Z,11.7717
2023-05-10T07:16:47.654Z,11.7051
2023-05-10T07:17:55.711Z,11.6710
2023-05-10T07:19:03.792Z,11.6589
2023-05-10T07:20:11.954Z,11.6341
2023-05-10T07:21:20.009Z,11.6828
2023-05-10T07:22:27.809Z,11.9160
2023-05-10T07:23:35.894Z,11.8676
2023-05-10T07:24:43.901Z,11.9717
2023-05-10T07:25:52.104Z,12.1230
2023-05-10T07:27:00.261Z,12.3023
2023-05-10T07:28:08.197Z,12.5012
2023-05-10T07:29:16.411Z,12.6357
2023-05-10T07:30:24.413Z,12.5577
2023-05-10T07:31:32.429Z,12.4295
2023-05-10T07:32:40.596Z,12.2931
2023-05-10T07:33:48.538Z,12.2132
2023-05-10T07:34:56.628Z,12.2376
2023-05-10T07:36:04.626Z,12.2834
2023-05-10T07:37:12.583Z,12.3210
2023-05-10T07:38:20.633Z,12.1466
2023-05-10T07:39:28.690Z,11.9969
2023-05-10T07:40:36.927Z,11.8228
2023-05-10T07:41:45.199Z,11.8527
2023-05-10T07:42:53.038Z,11.8512
2023-05-10T07:44:01.063Z,12.0063
2023-05-10T07:45:09.247Z,12.0911
2023-05-10T07:46:17.510Z,12.1404
2023-05-10T07:47:25.330Z,12.1651
2023-05-10T07:48:33.368Z,12.1096
2023-05-10T07:49:41.367Z,12.1875
2023-05-10T07:50:49.429Z,12.2624
2023-05-10T07:51:57.342Z,12.3088
2023-05-10T07:53:05.476Z,12.3410
2023-05-10T07:54:13.469Z,12.3246
2023-05-10T07:55:21.664Z,12.3961
2023-05-10T07:56:29.778Z,12.3467
2023-05-10T07:57:37.876Z,12.2853
2023-05-10T07:58:45.891Z,12.3227
2023-05-10T07:59:53.938Z,12.2519
2023-05-10T08:01:02.075Z,12.2229
2023-05-10T08:02:10.035Z,12.3147
2023-05-10T08:03:18.208Z,12.3877
2023-05-10T08:04:26.238Z,12.3498
2023-05-10T08:05:35.807Z,12.2147
2023-05-10T08:06:47.140Z,12.1953
2023-05-10T08:07:55.056Z,12.2886
2023-05-10T08:09:03.153Z,12.4764
2023-05-10T08:10:11.283Z,12.5048
2023-05-10T08:11:19.372Z,12.2660
2023-05-10T08:12:27.406Z,12.3467
2023-05-10T08:13:35.561Z,12.2233
2023-05-10T08:14:43.602Z,12.1150
2023-05-10T08:15:51.823Z,12.0860
2023-05-10T08:16:59.807Z,11.9748
2023-05-10T08:18:07.873Z,11.9996
2023-05-10T08:19:15.813Z,12.0993
2023-05-10T08:20:23.819Z,12.4146
2023-05-10T08:21:31.848Z,12.6185
2023-05-10T08:22:39.792Z,12.5281
2023-05-10T08:23:47.900Z,12.5523
2023-05-10T08:24:56.268Z,12.7021
2023-05-10T08:26:04.131Z,12.9203
2023-05-10T08:27:12.222Z,13.1976
2023-05-10T08:28:20.261Z,13.1570
2023-05-10T08:29:30.440Z,12.9926
2023-05-10T08:30:41.449Z,12.9479
2023-05-10T08:31:49.343Z,12.9596
2023-05-10T08:32:57.352Z,12.9266
2023-05-10T08:34:05.385Z,13.0297
2023-05-10T08:35:13.337Z,13.1177
2023-05-10T08:36:21.359Z,13.0009
2023-05-10T08:37:29.400Z,13.0435
2023-05-10T08:38:37.643Z,13.0437
2023-05-10T08:39:45.736Z,12.9216
2023-05-10T08:40:53.738Z,12.9674
2023-05-10T08:42:01.784Z,12.9477
2023-05-10T08:43:09.849Z,12.7570
2023-05-10T08:44:17.881Z,12.8465
2023-05-10T08:45:26.009Z,13.2586
2023-05-10T08:46:34.033Z,13.5186
2023-05-10T08:47:42.069Z,13.7002
2023-05-10T08:48:50.173Z,13.8118
2023-05-10T08:49:58.078Z,13.7551
2023-05-10T08:51:06.095Z,13.7894
2023-05-10T08:52:14.141Z,13.7345
2023-05-10T08:53:22.378Z,13.6214
2023-05-10T08:54:30.417Z,13.6123
2023-05-10T08:55:38.451Z,13.4984
2023-05-10T08:56:49.199Z,13.5432
2023-05-10T08:57:59.475Z,13.3364
2023-05-10T08:59:07.578Z,13.1051
2023-05-10T09:00:15.703Z,13.1802
2023-05-10T09:01:23.710Z,13.2605
2023-05-10T09:02:31.774Z,13.1039
2023-05-10T09:03:39.828Z,12.9638
2023-05-10T09:04:47.902Z,12.8726
2023-05-10T09:05:55.809Z,12.8476
2023-05-10T09:07:03.829Z,12.7272
2023-05-10T09:08:12.150Z,12.8569
2023-05-10T09:09:20.170Z,12.9027
2023-05-10T09:10:28.224Z,12.7919
2023-05-10T09:11:36.194Z,12.8495
2023-05-10T09:12:44.260Z,12.9805
2023-05-10T09:13:52.301Z,12.9060
2023-05-10T09:15:00.584Z,12.6841
2023-05-10T09:16:20.342Z,12.6948
2023-05-10T09:17:21.299Z,12.6248
2023-05-10T09:18:29.322Z,12.5893
2023-05-10T09:19:37.333Z,12.4965
2023-05-10T09:20:45.623Z,12.3750
2023-05-10T09:21:53.593Z,12.3635
2023-05-10T09:23:01.634Z,12.4638
2023-05-10T09:24:09.722Z,12.5205
2023-05-10T09:25:18.121Z,12.6025
2023-05-10T09:26:25.861Z,12.7873
2023-05-10T09:27:33.887Z,12.6426
2023-05-10T09:28:41.931Z,12.6534
2023-05-10T09:29:50.058Z,12.6569
2023-05-10T09:30:58.124Z,12.8287
2023-05-10T09:32:05.956Z,12.8785
2023-05-10T09:33:14.062Z,12.6988
2023-05-10T09:34:22.130Z,12.7942
2023-05-10T09:35:30.342Z,12.8382
2023-05-10T09:36:38.492Z,12.6853
2023-05-10T09:37:46.402Z,12.6576
2023-05-10T09:38:54.493Z,12.5006
2023-05-10T09:40:02.482Z,12.4886
2023-05-10T09:41:10.694Z,12.4997
2023-05-10T09:42:18.633Z,12.4789
2023-05-10T09:43:26.672Z,12.4593
2023-05-10T09:44:34.748Z,12.4593
2023-05-10T09:45:42.799Z,12.5047
2023-05-10T09:46:50.739Z,12.5354
2023-05-10T09:47:58.790Z,12.4728
2023-05-10T09:49:06.787Z,12.4032
2023-05-10T09:50:14.983Z,12.3385
2023-05-10T09:51:23.130Z,12.1251
2023-05-10T09:52:31.086Z,12.2655
2023-05-10T09:53:39.160Z,12.4961
2023-05-10T09:54:47.212Z,12.4730
2023-05-10T09:55:55.316Z,12.5993
2023-05-10T09:57:03.318Z,12.8114
2023-05-10T09:58:11.659Z,12.9954
2023-05-10T09:59:19.423Z,13.0481
2023-05-10T10:00:27.613Z,13.0528
2023-05-10T10:01:35.500Z,13.1484
2023-05-10T10:02:43.513Z,13.0566
2023-05-10T10:03:51.522Z,13.1280
2023-05-10T10:04:59.895Z,13.1392
2023-05-10T10:06:15.901Z,13.2039
2023-05-10T10:07:20.678Z,13.2694
2023-05-10T10:08:28.736Z,13.3586
2023-05-10T10:09:36.770Z,13.5443
2023-05-10T10:10:46.017Z,13.7597
2023-05-10T10:11:53.001Z,13.9239
2023-05-10T10:13:00.963Z,14.0940
2023-05-10T10:14:09.059Z,14.2218
2023-05-10T10:15:17.105Z,14.1904
2023-05-10T10:16:25.021Z,14.1328
2023-05-10T10:17:33.097Z,14.1463
2023-05-10T10:18:41.308Z,14.0561
2023-05-10T10:19:49.310Z,13.9209
2023-05-10T10:20:57.421Z,13.9399
2023-05-10T10:22:05.539Z,13.9428
2023-05-10T10:23:15.170Z,13.8446
2023-05-10T10:24:26.395Z,13.8375
2023-05-10T10:25:34.602Z,13.6334
2023-05-10T10:26:42.515Z,13.5033
2023-05-10T10:27:50.596Z,13.7002
2023-05-10T10:28:58.501Z,13.8167
2023-05-10T10:30:06.546Z,13.8579
2023-05-10T10:31:14.713Z,13.7158
2023-05-10T10:32:22.800Z,13.8366
2023-05-10T10:33:30.996Z,13.9657
2023-05-10T10:34:38.905Z,14.2209
2023-05-10T10:35:46.982Z,14.2505
2023-05-10T10:36:55.006Z,14.2899
2023-05-10T10:38:03.141Z,14.6272
2023-05-10T10:39:11.146Z,14.9766
2023-05-10T10:40:19.275Z,15.1061
2023-05-10T10:41:27.222Z,15.1610
2023-05-10T10:42:35.351Z,15.3195
2023-05-10T10:43:43.244Z,15.3369
2023-05-10T10:44:51.278Z,15.4454
2023-05-10T10:45:59.362Z,15.5892
2023-05-10T10:47:07.728Z,15.6798
2023-05-10T10:48:15.636Z,15.7967
2023-05-10T10:49:23.628Z,15.9200
2023-05-10T10:50:31.809Z,15.9737
2023-05-10T10:51:39.915Z,16.0277
2023-05-10T10:52:48.002Z,15.7286
2023-05-10T10:53:55.851Z,15.8318
2023-05-10T10:55:04.118Z,16.0929
2023-05-10T10:56:12.031Z,15.9833
2023-05-10T10:57:20.077Z,15.8551
2023-05-10T10:58:27.954Z,15.7023
2023-05-10T10:59:36.018Z,15.6583
2023-05-10T11:00:44.114Z,15.3539
2023-05-10T11:01:52.395Z,15.1597
2023-05-10T11:03:00.378Z,15.0042
2023-05-10T11:04:08.379Z,14.8558
2023-05-10T11:05:16.575Z,14.8087
2023-05-10T11:06:24.680Z,14.6910
2023-05-10T11:07:32.605Z,14.4879
2023-05-10T11:08:40.595Z,14.4746
2023-05-10T11:09:48.661Z,14.3596
2023-05-10T11:10:56.910Z,14.2144
2023-05-10T11:12:04.844Z,14.1022
2023-05-10T11:13:12.683Z,14.0939
2023-05-10T11:14:20.733Z,13.9350
2023-05-10T11:15:28.775Z,13.6924
2023-05-10T11:16:37.011Z,13.6487
2023-05-10T11:17:45.259Z,13.5596
2023-05-10T11:18:53.091Z,13.5106
2023-05-10T11:20:01.114Z,13.3431
2023-05-10T11:21:09.341Z,13.3357
2023-05-10T11:22:17.194Z,13.3302
2023-05-10T11:23:25.367Z,13.3210
2023-05-10T11:24:33.452Z,13.3290
2023-05-10T11:25:41.644Z,13.4311
2023-05-10T11:26:49.476Z,13.4494
2023-05-10T11:27:57.448Z,13.6155
2023-05-10T11:29:05.520Z,13.7534
2023-05-10T11:30:13.647Z,13.7563
2023-05-10T11:31:21.829Z,13.7318
2023-05-10T11:32:29.819Z,13.9281
2023-05-10T11:33:37.925Z,14.0084
2023-05-10T11:34:45.849Z,14.2041
2023-05-10T11:35:53.968Z,14.4170
2023-05-10T11:37:01.984Z,14.5366
2023-05-10T11:38:10.075Z,14.6178
2023-05-10T11:39:18.054Z,14.4986
2023-05-10T11:40:26.137Z,14.4473
2023-05-10T11:41:34.394Z,14.3674
2023-05-10T11:42:42.116Z,14.3781
2023-05-10T11:43:50.136Z,14.4046
2023-05-10T11:44:58.248Z,14.4738
2023-05-10T11:46:06.633Z,14.4593
2023-05-10T11:47:15.309Z,14.3525
2023-05-10T11:48:22.589Z,14.3096
2023-05-10T11:49:30.855Z,14.3073
2023-05-10T11:50:38.631Z,14.2041
2023-05-10T11:51:46.678Z,14.1238
2023-05-10T11:52:54.801Z,14.1175
2023-05-10T11:54:02.867Z,14.1892
2023-05-10T11:55:10.859Z,14.0342
2023-05-10T11:56:18.939Z,13.9081
2023-05-10T11:57:27.020Z,13.9485
2023-05-10T11:58:34.905Z,13.7246
2023-05-10T11:59:43.345Z,13.7214
2023-05-10T12:00:51.020Z,13.6687
2023-05-10T12:01:59.177Z,13.6212
2023-05-10T12:03:07.374Z,13.5894
2023-05-10T12:04:15.445Z,13.7555
2023-05-10T12:05:23.366Z,13.9878
2023-05-10T12:06:31.468Z,14.2741
2023-05-10T12:07:39.547Z,14.6855
2023-05-10T12:08:47.520Z,15.4282
2023-05-10T12:09:55.570Z,15.9013
2023-05-10T12:11:03.646Z,15.7576
2023-05-10T12:12:11.706Z,15.6924
2023-05-10T12:13:19.649Z,15.7330
2023-05-10T12:14:27.718Z,15.4902
2023-05-10T12:15:35.755Z,15.4809
2023-05-10T12:16:43.987Z,15.3672
2023-05-10T12:17:52.075Z,15.1507
2023-05-10T12:19:00.077Z,15.0452
2023-05-10T12:20:08.088Z,14.9434
2023-05-10T12:21:16.194Z,14.9705
2023-05-10T12:22:24.224Z,14.9897
2023-05-10T12:23:32.334Z,14.9653
2023-05-10T12:24:40.384Z,14.8923
2023-05-10T12:25:48.417Z,14.7570
2023-05-10T12:26:56.425Z,14.7538
2023-05-10T12:28:04.423Z,14.7828
2023-05-10T12:29:12.428Z,14.8032
2023-05-10T12:30:20.482Z,14.8911
2023-05-10T12:31:28.836Z,15.0895
2023-05-10T12:32:36.750Z,15.3474
2023-05-10T12:33:44.798Z,15.4425
2023-05-10T12:34:52.860Z,15.7264
2023-05-10T12:36:00.894Z,15.9638
2023-05-10T12:37:08.905Z,16.2574
2023-05-10T12:38:17.077Z,16.4552
2023-05-10T12:39:25.046Z,16.6905
2023-05-10T12:40:33.221Z,16.7022
2023-05-10T12:41:43.518Z,16.6047
2023-05-10T12:42:53.999Z,16.5525
2023-05-10T12:44:02.025Z,16.4103
2023-05-10T12:45:10.069Z,15.8568
2023-05-10T12:46:18.315Z,15.7201
2023-05-10T12:47:26.442Z,15.4357
2023-05-10T12:48:34.383Z,15.4334
2023-05-10T12:49:42.475Z,15.1862
2023-05-10T12:50:50.453Z,15.0609
2023-05-10T12:51:58.517Z,14.8316
2023-05-10T12:53:06.630Z,14.8238
2023-05-10T12:54:14.818Z,14.8133
2023-05-10T12:55:22.704Z,14.9073
2023-05-10T12:56:30.854Z,14.9806
2023-05-10T12:57:38.677Z,15.0235
2023-05-10T12:58:46.760Z,15.2003
2023-05-10T12:59:54.804Z,15.3323
2023-05-10T13:01:03.172Z,15.4147
2023-05-10T13:02:11.060Z,15.4046
2023-05-10T13:03:19.285Z,15.4465
2023-05-10T13:04:27.201Z,15.4216
2023-05-10T13:05:35.285Z,15.1765
2023-05-10T13:06:43.348Z,15.0725
2023-05-10T13:07:51.472Z,15.0676
2023-05-10T13:08:59.509Z,15.0628
2023-05-10T13:10:07.586Z,14.8169
2023-05-10T13:11:15.694Z,14.6701
2023-05-10T13:12:23.537Z,14.3939
2023-05-10T13:13:31.606Z,13.8425
2023-05-10T13:14:39.623Z,13.5823
2023-05-10T13:15:47.788Z,13.7736
2023-05-10T13:16:55.973Z,13.8570
2023-05-10T13:18:04.120Z,13.9991
2023-05-10T13:19:12.256Z,13.9670
2023-05-10T13:20:20.014Z,13.8917
2023-05-10T13:21:28.079Z,13.8308
2023-05-10T13:22:40.197Z,13.9693
2023-05-10T13:23:49.098Z,14.3415
2023-05-10T13:24:57.134Z,15.5896
2023-05-10T13:26:05.088Z,16.4265
2023-05-10T13:27:13.108Z,16.9585
2023-05-10T13:28:21.176Z,17.4498
2023-05-10T13:29:29.421Z,17.4527
2023-05-10T13:30:37.418Z,17.7321
2023-05-10T13:31:45.540Z,18.1271
2023-05-10T13:32:53.575Z,18.1630
2023-05-10T13:34:01.716Z,18.2208
2023-05-10T13:35:09.548Z,18.1046
2023-05-10T13:36:17.823Z,18.0867
2023-05-10T13:37:25.808Z,17.2944
2023-05-10T13:38:33.832Z,16.7445
2023-05-10T13:39:42.057Z,16.1246
2023-05-10T13:40:49.808Z,16.0027
2023-05-10T13:41:57.852Z,15.9083
2023-05-10T13:43:05.954Z,15.8715
2023-05-10T13:44:14.263Z,15.7094